createdAt,value
2019-05-20T00:00:41.146Z,11.93
2019-05-20T00:03:11.664Z,11.92
2019-05-20T00:05:42.459Z,11.93
2019-05-20T00:08:13.115Z,11.88
2019-05-20T00:10:46.726Z,11.89
2019-05-20T00:13:20.145Z,11.94
2019-05-20T00:15:53.427Z,11.96
2019-05-20T00:18:23.818Z,11.95
2019-05-20T00:20:54.182Z,11.96
2019-05-20T00:23:24.787Z,12.00
2019-05-20T00:25:55.021Z,12.00
2019-05-20T00:28:25.357Z,12.08
2019-05-20T00:30:55.682Z,12.08
2019-05-20T00:33:26.190Z,12.06
2019-05-20T00:35:56.562Z,12.03
2019-05-20T00:38:27.009Z,12.09
2019-05-20T00:40:57.443Z,12.07
2019-05-20T00:43:27.973Z,12.13
2019-05-20T00:46:01.117Z,12.04
2019-05-20T00:48:31.631Z,12.05
2019-05-20T00:51:02.045Z,12.15
2019-05-20T00:53:32.472Z,12.03
2019-05-20T00:56:02.994Z,11.98
2019-05-20T00:58:33.448Z,12.03
2019-05-20T01:02:55.832Z,12.07
2019-05-20T01:05:13.843Z,11.91
2019-05-20T01:07:44.229Z,11.89
2019-05-20T01:10:15.234Z,11.89
2019-05-20T01:12:45.701Z,11.91
2019-05-20T01:15:16.668Z,11.92
2019-05-20T01:17:47.052Z,11.89
2019-05-20T01:20:17.817Z,11.93
2019-05-20T01:22:48.340Z,11.90
2019-05-20T01:25:18.821Z,11.92
2019-05-20T01:27:49.185Z,11.89
2019-05-20T01:30:20.542Z,11.90
2019-05-20T01:32:50.939Z,11.95
2019-05-20T01:35:21.506Z,12.08
2019-05-20T01:37:51.886Z,12.12
2019-05-20T01:40:22.462Z,12.13
2019-05-20T01:42:52.861Z,12.15
2019-05-20T01:45:23.314Z,12.24
2019-05-20T01:47:53.497Z,12.25
2019-05-20T01:50:23.808Z,12.31
2019-05-20T01:52:56.811Z,12.36
2019-05-20T01:55:27.125Z,12.42
2019-05-20T01:57:57.570Z,12.37
2019-05-20T02:00:27.997Z,12.32
2019-05-20T02:02:58.412Z,12.26
2019-05-20T02:05:28.778Z,12.20
2019-05-20T02:07:59.295Z,12.12
2019-05-20T02:10:29.669Z,12.08
2019-05-20T02:12:59.979Z,12.06
2019-05-20T02:15:36.110Z,12.05
2019-05-20T02:18:06.498Z,12.01
2019-05-20T02:20:36.841Z,12.04
2019-05-20T02:23:16.569Z,12.05
2019-05-20T02:25:54.569Z,12.01
2019-05-20T02:28:24.940Z,12.02
2019-05-20T02:30:57.195Z,12.02
2019-05-20T02:33:27.672Z,12.04
2019-05-20T02:36:01.332Z,12.05
2019-05-20T02:38:37.182Z,12.02
2019-05-20T02:41:07.672Z,12.02
2019-05-20T02:43:40.873Z,12.10
2019-05-20T02:46:11.313Z,12.12
2019-05-20T02:48:41.639Z,12.08
2019-05-20T02:51:12.143Z,12.09
2019-05-20T02:53:42.639Z,12.05
2019-05-20T02:56:12.983Z,12.08
2019-05-20T02:58:43.581Z,12.12
2019-05-20T03:02:43.882Z,12.15
2019-05-20T03:05:14.396Z,12.12
2019-05-20T03:07:44.953Z,12.11
2019-05-20T03:10:15.430Z,12.07
2019-05-20T03:12:45.948Z,12.06
2019-05-20T03:15:16.831Z,12.08
2019-05-20T03:17:47.185Z,11.97
2019-05-20T03:20:17.685Z,12.01
2019-05-20T03:22:48.040Z,11.94
2019-05-20T03:25:18.601Z,12.06
2019-05-20T03:27:48.995Z,12.03
2019-05-20T03:30:19.457Z,12.03
2019-05-20T03:32:49.956Z,12.03
2019-05-20T03:35:20.312Z,12.08
2019-05-20T03:37:50.693Z,12.04
2019-05-20T03:40:21.119Z,12.06
2019-05-20T03:42:51.462Z,12.05
2019-05-20T03:45:21.848Z,12.04
2019-05-20T03:47:52.180Z,12.10
2019-05-20T03:50:22.669Z,12.08
2019-05-20T03:52:54.198Z,12.02
2019-05-20T03:55:24.479Z,12.08
2019-05-20T03:57:54.811Z,12.13
2019-05-20T04:00:44.577Z,12.15
2019-05-20T04:03:15.575Z,12.12
2019-05-20T04:05:46.426Z,12.14
2019-05-20T04:08:16.802Z,12.18
2019-05-20T04:10:47.113Z,12.19
2019-05-20T04:13:17.558Z,12.21
2019-05-20T04:15:48.038Z,12.24
2019-05-20T04:18:18.252Z,12.27
2019-05-20T04:20:48.495Z,12.33
2019-05-20T04:23:18.957Z,12.35
2019-05-20T04:25:49.386Z,12.36
2019-05-20T04:28:19.746Z,12.42
2019-05-20T04:30:50.079Z,12.47
2019-05-20T04:33:20.469Z,12.47
2019-05-20T04:35:50.917Z,12.44
2019-05-20T04:38:21.240Z,12.47
2019-05-20T04:40:51.544Z,12.51
2019-05-20T04:43:21.938Z,12.54
2019-05-20T04:45:52.741Z,12.60
2019-05-20T04:48:23.187Z,12.67
2019-05-20T04:50:53.366Z,12.72
2019-05-20T04:53:23.562Z,12.77
2019-05-20T04:55:56.905Z,12.85
2019-05-20T04:58:27.380Z,12.90
2019-05-20T05:02:46.255Z,13.00
2019-05-20T05:05:16.738Z,13.06
2019-05-20T05:07:47.349Z,13.13
2019-05-20T05:10:17.852Z,13.22
2019-05-20T05:12:48.507Z,13.25
2019-05-20T05:15:21.857Z,13.31
2019-05-20T05:17:55.362Z,13.27
2019-05-20T05:20:26.002Z,13.32
2019-05-20T05:22:56.403Z,13.33
2019-05-20T05:25:26.739Z,13.48
2019-05-20T05:27:57.130Z,13.97
2019-05-20T05:30:28.418Z,13.88
2019-05-20T05:33:07.656Z,13.84
2019-05-20T05:35:52.187Z,13.99
2019-05-20T05:38:10.300Z,13.81
2019-05-20T05:40:40.645Z,13.80
2019-05-20T05:43:11.146Z,14.01
2019-05-20T05:45:41.556Z,13.87
2019-05-20T05:48:11.991Z,13.93
2019-05-20T05:50:42.453Z,14.11
2019-05-20T05:53:12.899Z,13.90
2019-05-20T05:55:45.913Z,13.95
2019-05-20T05:58:16.205Z,13.97
2019-05-20T06:00:46.591Z,14.07
2019-05-20T06:03:16.986Z,14.20
2019-05-20T06:05:47.207Z,14.35
2019-05-20T06:08:17.500Z,14.43
2019-05-20T06:10:48.009Z,14.59
2019-05-20T06:13:18.436Z,14.68
2019-05-20T06:15:48.842Z,14.58
2019-05-20T06:18:19.271Z,14.38
2019-05-20T06:20:49.605Z,14.44
2019-05-20T06:23:20.028Z,14.79
2019-05-20T06:25:50.416Z,15.07
2019-05-20T06:28:20.814Z,15.41
2019-05-20T06:30:51.280Z,15.05
2019-05-20T06:33:21.699Z,15.36
2019-05-20T06:35:52.166Z,15.17
2019-05-20T06:38:56.292Z,15.20
2019-05-20T06:41:26.726Z,15.08
2019-05-20T06:43:57.193Z,15.13
2019-05-20T06:46:27.658Z,15.06
2019-05-20T06:48:58.297Z,15.13
2019-05-20T06:51:28.688Z,15.40
2019-05-20T06:53:59.049Z,15.10
2019-05-20T06:56:29.499Z,15.37
2019-05-20T06:59:00.019Z,15.20
2019-05-20T07:02:42.155Z,15.26
2019-05-20T07:05:13.027Z,15.11
2019-05-20T07:07:43.426Z,14.79
2019-05-20T07:10:13.861Z,14.80
2019-05-20T07:12:44.257Z,14.99
2019-05-20T07:15:14.768Z,14.72
2019-05-20T07:17:45.153Z,14.58
2019-05-20T07:20:15.720Z,14.79
2019-05-20T07:22:55.815Z,14.54
2019-05-20T07:25:18.219Z,14.60
2019-05-20T07:27:48.566Z,14.45
2019-05-20T07:30:19.305Z,14.58
2019-05-20T07:32:49.958Z,14.62
2019-05-20T07:35:30.072Z,14.42
2019-05-20T07:37:52.376Z,14.48
2019-05-20T07:40:33.889Z,14.50
2019-05-20T07:43:12.019Z,14.42
2019-05-20T07:45:42.865Z,14.33
2019-05-20T07:48:13.807Z,14.26
2019-05-20T07:50:45.618Z,14.32
2019-05-20T07:53:16.828Z,14.36
2019-05-20T07:56:00.734Z,14.34
2019-05-20T07:58:38.505Z,14.50
2019-05-20T08:01:11.188Z,14.28
2019-05-20T08:03:41.639Z,14.27
2019-05-20T08:06:13.541Z,14.41
2019-05-20T08:08:46.767Z,14.31
2019-05-20T08:11:17.268Z,14.23
2019-05-20T08:13:49.205Z,14.26
2019-05-20T08:16:19.735Z,14.32
2019-05-20T08:18:50.264Z,14.41
2019-05-20T08:21:20.860Z,14.41
2019-05-20T08:23:51.470Z,14.38
2019-05-20T08:26:22.132Z,14.16
2019-05-20T08:28:55.795Z,14.32
2019-05-20T08:31:32.264Z,14.23
2019-05-20T08:34:08.145Z,14.14
2019-05-20T08:36:38.571Z,14.17
2019-05-20T08:39:14.853Z,14.05
2019-05-20T08:41:48.148Z,14.31
2019-05-20T08:44:24.212Z,14.11
2019-05-20T08:46:57.450Z,14.17
2019-05-20T08:49:30.866Z,14.26
2019-05-20T08:52:01.571Z,14.35
2019-05-20T08:54:32.081Z,14.39
2019-05-20T08:57:05.035Z,14.40
2019-05-20T09:02:41.312Z,14.28
2019-05-20T09:05:11.898Z,14.41
2019-05-20T09:07:42.370Z,14.36
2019-05-20T09:10:18.042Z,14.45
2019-05-20T09:12:49.747Z,14.39
2019-05-20T09:15:20.531Z,14.38
2019-05-20T09:17:50.793Z,14.36
2019-05-20T09:20:21.620Z,14.18
2019-05-20T09:22:52.163Z,14.30
2019-05-20T09:25:32.057Z,14.38
2019-05-20T09:28:03.213Z,14.48
2019-05-20T09:30:33.844Z,14.35
2019-05-20T09:33:04.717Z,14.29
2019-05-20T09:35:35.105Z,14.33
2019-05-20T09:38:17.686Z,14.27
2019-05-20T09:40:44.088Z,14.48
2019-05-20T09:43:14.780Z,14.61
2019-05-20T09:45:45.203Z,14.65
2019-05-20T09:48:15.862Z,14.37
2019-05-20T09:50:46.175Z,14.50
2019-05-20T09:53:18.972Z,14.56
2019-05-20T09:55:49.355Z,14.54
2019-05-20T09:58:19.830Z,14.50
2019-05-20T10:00:50.322Z,14.49
2019-05-20T10:03:20.726Z,14.85
2019-05-20T10:05:51.156Z,14.59
2019-05-20T10:08:37.469Z,14.80
2019-05-20T10:10:59.549Z,14.93
2019-05-20T10:13:29.246Z,14.79
2019-05-20T10:15:59.685Z,14.73
2019-05-20T10:18:37.310Z,14.56
2019-05-20T10:21:05.551Z,14.68
2019-05-20T10:23:35.988Z,15.06
2019-05-20T10:26:09.506Z,14.72
2019-05-20T10:28:42.090Z,15.00
2019-05-20T10:31:11.933Z,15.30
2019-05-20T10:33:42.451Z,15.14
2019-05-20T10:36:12.805Z,14.95
2019-05-20T10:38:57.599Z,15.15
2019-05-20T10:41:18.213Z,15.22
2019-05-20T10:43:48.680Z,15.07
2019-05-20T10:46:21.947Z,15.04
2019-05-20T10:48:52.226Z,15.20
2019-05-20T10:51:25.820Z,15.14
2019-05-20T10:53:56.291Z,15.14
2019-05-20T10:56:26.693Z,15.30
2019-05-20T10:58:59.826Z,15.11
2019-05-20T11:02:43.806Z,15.09
2019-05-20T11:05:15.504Z,14.84
2019-05-20T11:07:49.376Z,15.04
2019-05-20T11:10:20.389Z,15.06
2019-05-20T11:12:50.830Z,15.18
2019-05-20T11:15:21.773Z,15.11
2019-05-20T11:17:52.109Z,15.24
2019-05-20T11:20:22.625Z,15.13
2019-05-20T11:23:01.163Z,15.37
2019-05-20T11:25:31.252Z,15.26
2019-05-20T11:28:03.895Z,15.29
2019-05-20T11:30:34.459Z,15.29
2019-05-20T11:33:04.990Z,15.32
2019-05-20T11:35:35.549Z,15.34
2019-05-20T11:38:08.236Z,15.16
2019-05-20T11:40:38.540Z,15.09
2019-05-20T11:43:08.903Z,15.04
2019-05-20T11:45:39.396Z,15.03
2019-05-20T11:48:09.907Z,14.92
2019-05-20T11:50:40.549Z,15.03
2019-05-20T11:53:11.279Z,15.10
2019-05-20T11:55:41.795Z,15.18
2019-05-20T11:58:16.227Z,15.21
2019-05-20T12:00:44.427Z,15.01
2019-05-20T12:03:14.922Z,15.27
2019-05-20T12:05:45.582Z,15.32
2019-05-20T12:08:17.598Z,15.25
2019-05-20T12:10:47.963Z,15.07
2019-05-20T12:13:23.790Z,15.25
2019-05-20T12:15:54.099Z,15.23
2019-05-20T12:18:24.965Z,15.38
2019-05-20T12:20:55.359Z,15.39
2019-05-20T12:23:25.920Z,15.44
2019-05-20T12:25:56.313Z,15.63
2019-05-20T12:28:27.761Z,15.79
2019-05-20T12:30:58.125Z,15.62
2019-05-20T12:33:28.653Z,15.60
2019-05-20T12:35:59.017Z,15.48
2019-05-20T12:38:29.380Z,15.58
2019-05-20T12:40:59.752Z,15.56
2019-05-20T12:43:33.431Z,15.45
2019-05-20T12:46:06.679Z,15.30
2019-05-20T12:48:44.534Z,15.27
2019-05-20T12:51:15.194Z,15.20
2019-05-20T12:53:45.706Z,15.46
2019-05-20T12:56:19.383Z,15.45
2019-05-20T12:58:48.605Z,15.48
2019-05-20T13:02:43.484Z,15.60
2019-05-20T13:05:14.155Z,15.69
2019-05-20T13:07:45.399Z,15.65
2019-05-20T13:10:29.654Z,15.71
2019-05-20T13:12:57.142Z,15.77
2019-05-20T13:15:27.863Z,16.06
2019-05-20T13:17:58.153Z,16.01
2019-05-20T13:20:28.735Z,16.12
2019-05-20T13:23:04.552Z,16.39
2019-05-20T13:25:37.605Z,16.31
2019-05-20T13:28:08.016Z,15.95
2019-05-20T13:30:38.636Z,15.90
2019-05-20T13:33:09.107Z,15.94
2019-05-20T13:35:39.729Z,15.67
2019-05-20T13:38:10.383Z,15.70
2019-05-20T13:40:46.503Z,15.62
2019-05-20T13:43:12.890Z,15.55
2019-05-20T13:45:43.273Z,15.44
2019-05-20T13:48:13.650Z,15.46
2019-05-20T13:50:44.176Z,15.59
2019-05-20T13:53:14.607Z,15.63
2019-05-20T13:55:47.751Z,15.83
2019-05-20T13:58:18.094Z,15.94
2019-05-20T14:00:48.532Z,16.00
2019-05-20T14:03:19.085Z,16.29
2019-05-20T14:05:49.483Z,16.30
2019-05-20T14:08:19.811Z,16.23
2019-05-20T14:11:03.639Z,15.95
2019-05-20T14:13:22.171Z,16.01
2019-05-20T14:15:53.704Z,16.07
2019-05-20T14:18:24.256Z,15.93
2019-05-20T14:21:01.143Z,15.70
2019-05-20T14:23:34.565Z,15.56
2019-05-20T14:26:08.424Z,15.59
2019-05-20T14:28:41.804Z,15.54
2019-05-20T14:31:14.083Z,15.44
2019-05-20T14:33:44.381Z,15.89
2019-05-20T14:36:37.767Z,15.68
2019-05-20T14:38:47.066Z,15.57
2019-05-20T14:41:21.436Z,15.91
2019-05-20T14:43:49.528Z,15.90
2019-05-20T14:46:19.883Z,15.57
2019-05-20T14:48:50.227Z,15.64
2019-05-20T14:51:20.718Z,15.94
2019-05-20T14:53:51.247Z,15.79
2019-05-20T14:56:22.251Z,15.91
2019-05-20T14:58:55.224Z,15.73
2019-05-20T15:02:52.402Z,15.99
2019-05-20T15:05:23.253Z,16.12
2019-05-20T15:07:53.621Z,15.87
2019-05-20T15:10:24.222Z,16.03
2019-05-20T15:12:54.736Z,16.01
2019-05-20T15:15:28.258Z,15.85
2019-05-20T15:18:07.505Z,15.78
2019-05-20T15:20:42.729Z,15.82
2019-05-20T15:23:13.009Z,15.77
2019-05-20T15:25:43.472Z,15.59
2019-05-20T15:28:13.882Z,15.57
2019-05-20T15:30:44.703Z,15.60
2019-05-20T15:33:15.209Z,15.69
2019-05-20T15:35:46.043Z,15.65
2019-05-20T15:38:16.494Z,15.43
2019-05-20T15:40:52.906Z,15.43
2019-05-20T15:43:23.598Z,15.38
2019-05-20T15:45:54.137Z,15.40
2019-05-20T15:48:24.811Z,15.40
2019-05-20T15:50:55.318Z,15.33
2019-05-20T15:53:25.756Z,15.29
2019-05-20T15:55:56.395Z,15.25
2019-05-20T15:58:26.856Z,15.31
2019-05-20T16:00:57.676Z,15.32
2019-05-20T16:03:28.223Z,15.18
2019-05-20T16:05:59.984Z,15.26
2019-05-20T16:08:31.076Z,15.20
2019-05-20T16:11:01.929Z,15.29
2019-05-20T16:13:35.922Z,15.25
2019-05-20T16:16:06.387Z,15.24
2019-05-20T16:18:40.509Z,15.21
2019-05-20T16:21:11.442Z,15.20
2019-05-20T16:23:42.101Z,15.14
2019-05-20T16:26:13.004Z,15.14
2019-05-20T16:28:44.149Z,15.09
2019-05-20T16:31:15.102Z,15.08
2019-05-20T16:33:48.124Z,15.05
2019-05-20T16:36:19.369Z,15.00
2019-05-20T16:38:50.279Z,14.94
2019-05-20T16:41:20.801Z,14.96
2019-05-20T16:43:51.204Z,14.83
2019-05-20T16:46:21.574Z,14.80
2019-05-20T16:48:51.991Z,14.79
2019-05-20T16:51:22.690Z,14.87
2019-05-20T16:53:53.551Z,14.93
2019-05-20T16:56:26.667Z,14.84
2019-05-20T16:58:56.954Z,14.73
2019-05-20T17:02:42.664Z,14.74
2019-05-20T17:05:13.043Z,14.72
2019-05-20T17:07:43.389Z,14.61
2019-05-20T17:10:14.041Z,14.61
2019-05-20T17:12:46.863Z,14.59
2019-05-20T17:15:17.530Z,14.54
2019-05-20T17:17:47.921Z,14.49
2019-05-20T17:20:18.335Z,14.44
2019-05-20T17:22:48.665Z,14.40
2019-05-20T17:25:22.160Z,14.40
2019-05-20T17:27:52.390Z,14.41
2019-05-20T17:30:22.989Z,14.34
2019-05-20T17:32:56.552Z,14.34
2019-05-20T17:35:27.045Z,14.28
2019-05-20T17:38:00.385Z,14.14
2019-05-20T17:40:30.757Z,14.14
2019-05-20T17:43:01.425Z,14.15
2019-05-20T17:45:31.955Z,14.18
2019-05-20T17:48:08.234Z,14.04
2019-05-20T17:50:38.690Z,14.00
2019-05-20T17:53:12.345Z,13.97
2019-05-20T17:55:44.705Z,13.93
2019-05-20T17:58:15.015Z,13.86
2019-05-20T18:00:48.611Z,13.81
2019-05-20T18:03:19.115Z,13.82
2019-05-20T18:05:49.936Z,13.78
2019-05-20T18:08:30.943Z,13.71
2019-05-20T18:11:01.409Z,13.68
2019-05-20T18:13:31.940Z,13.70
2019-05-20T18:16:05.174Z,13.65
2019-05-20T18:18:35.463Z,13.66
2019-05-20T18:21:05.947Z,13.59
2019-05-20T18:23:39.473Z,13.57
2019-05-20T18:26:09.729Z,13.63
2019-05-20T18:28:40.500Z,13.58
2019-05-20T18:31:12.251Z,13.59
2019-05-20T18:33:48.098Z,13.48
2019-05-20T18:36:18.741Z,13.48
2019-05-20T18:38:49.952Z,13.52
2019-05-20T18:41:20.858Z,13.49
2019-05-20T18:43:51.247Z,13.49
2019-05-20T18:46:21.692Z,13.49
2019-05-20T18:48:52.065Z,13.38
2019-05-20T18:51:22.512Z,13.38
2019-05-20T18:53:52.974Z,13.36
2019-05-20T18:56:23.444Z,13.40
2019-05-20T18:58:53.803Z,13.41
2019-05-20T19:02:42.381Z,13.44
2019-05-20T19:05:13.012Z,13.37
2019-05-20T19:07:43.480Z,13.36
2019-05-20T19:10:14.175Z,13.38
2019-05-20T19:12:44.601Z,13.33
2019-05-20T19:15:16.048Z,13.34
2019-05-20T19:17:46.450Z,13.31
2019-05-20T19:20:16.907Z,13.33
2019-05-20T19:22:47.467Z,13.33
2019-05-20T19:25:18.016Z,13.34
2019-05-20T19:27:48.414Z,13.34
2019-05-20T19:30:18.883Z,13.30
2019-05-20T19:32:53.085Z,13.31
2019-05-20T19:35:23.668Z,13.30
2019-05-20T19:37:54.215Z,13.29
2019-05-20T19:40:24.908Z,13.31
2019-05-20T19:42:55.261Z,13.26
2019-05-20T19:45:25.708Z,13.28
2019-05-20T19:47:56.114Z,13.26
2019-05-20T19:50:26.555Z,13.24
2019-05-20T19:52:56.909Z,13.25
2019-05-20T19:55:27.460Z,13.03
2019-05-20T19:57:57.698Z,13.17
2019-05-20T20:00:28.290Z,13.18
2019-05-20T20:02:58.751Z,13.16
2019-05-20T20:05:31.022Z,13.14
2019-05-20T20:08:02.153Z,13.15
2019-05-20T20:10:34.381Z,13.17
2019-05-20T20:13:04.921Z,13.15
2019-05-20T20:15:38.251Z,13.15
2019-05-20T20:18:08.684Z,13.08
2019-05-20T20:20:39.143Z,13.05
2019-05-20T20:23:12.101Z,13.02
2019-05-20T20:25:42.460Z,13.06
2019-05-20T20:28:12.853Z,12.95
2019-05-20T20:30:43.416Z,12.98
2019-05-20T20:33:14.240Z,12.98
2019-05-20T20:35:44.588Z,12.93
2019-05-20T20:38:17.845Z,12.91
2019-05-20T20:40:50.943Z,12.86
2019-05-20T20:43:23.487Z,12.85
2019-05-20T20:45:56.607Z,12.84
2019-05-20T20:48:29.041Z,12.80
2019-05-20T20:50:59.535Z,12.76
2019-05-20T20:53:29.950Z,12.78
2019-05-20T20:56:00.361Z,12.76
2019-05-20T20:58:30.745Z,12.71
2019-05-20T21:02:52.979Z,12.68
2019-05-20T21:05:15.307Z,12.62
2019-05-20T21:07:51.658Z,12.57
2019-05-20T21:10:29.614Z,12.62
2019-05-20T21:12:59.978Z,12.62
2019-05-20T21:15:30.398Z,12.52
2019-05-20T21:18:00.658Z,12.52
2019-05-20T21:20:31.110Z,12.57
2019-05-20T21:23:01.451Z,12.53
2019-05-20T21:25:31.671Z,12.51
2019-05-20T21:28:02.048Z,12.49
2019-05-20T21:30:32.427Z,12.51
2019-05-20T21:33:09.451Z,12.46
2019-05-20T21:35:34.938Z,12.47
2019-05-20T21:38:08.035Z,12.47
2019-05-20T21:40:38.366Z,12.51
2019-05-20T21:43:08.864Z,12.48
2019-05-20T21:45:39.276Z,12.49
2019-05-20T21:48:09.848Z,12.45
2019-05-20T21:50:40.170Z,12.48
2019-05-20T21:53:13.641Z,12.51
2019-05-20T21:55:43.953Z,12.53
2019-05-20T21:58:14.535Z,12.50
2019-05-20T22:00:49.345Z,12.52
2019-05-20T22:03:24.727Z,12.49
2019-05-20T22:05:52.294Z,12.51
2019-05-20T22:08:22.666Z,12.49
2019-05-20T22:10:58.970Z,12.48
2019-05-20T22:13:38.172Z,12.42
2019-05-20T22:16:08.526Z,12.45
2019-05-20T22:18:38.906Z,12.49
2019-05-20T22:21:10.831Z,12.47
2019-05-20T22:23:55.378Z,12.47
2019-05-20T22:26:25.782Z,12.46
2019-05-20T22:28:56.026Z,12.47
2019-05-20T22:31:26.464Z,12.37
2019-05-20T22:33:59.480Z,12.38
2019-05-20T22:36:29.820Z,12.39
2019-05-20T22:39:00.184Z,12.41
2019-05-20T22:41:30.592Z,12.41
2019-05-20T22:44:00.987Z,12.36
2019-05-20T22:46:31.307Z,12.38
2019-05-20T22:49:01.503Z,12.38
2019-05-20T22:51:31.869Z,12.38
2019-05-20T22:54:02.362Z,12.40
2019-05-20T22:56:32.634Z,12.39
2019-05-20T22:59:03.103Z,12.45
2019-05-20T23:02:41.459Z,12.45
2019-05-20T23:05:15.135Z,12.41
2019-05-20T23:07:46.008Z,12.41
2019-05-20T23:10:16.939Z,12.41
2019-05-20T23:12:47.323Z,12.49
2019-05-20T23:15:17.632Z,12.46
2019-05-20T23:17:47.945Z,12.44
2019-05-20T23:20:18.564Z,12.46
2019-05-20T23:22:48.987Z,12.45
2019-05-20T23:25:19.379Z,12.50
2019-05-20T23:27:49.718Z,12.50
2019-05-20T23:30:20.106Z,12.47
2019-05-20T23:32:50.577Z,12.50
2019-05-20T23:35:20.985Z,12.54
2019-05-20T23:37:51.536Z,12.54
2019-05-20T23:40:22.170Z,12.55
2019-05-20T23:42:55.554Z,12.57
2019-05-20T23:45:25.950Z,12.56
2019-05-20T23:47:56.306Z,12.56
2019-05-20T23:50:26.628Z,12.50
2019-05-20T23:52:56.963Z,12.50
2019-05-20T23:55:27.290Z,12.46
2019-05-20T23:58:04.741Z,12.41
